Flight Track Log - Related Links

Times and Time Zones

All times are in EDT time to prevent confusion due to time zone crossing. See the SWA1929 flight status page for this flight to view local times or setup timezone preferences in your user account.

Time Position Orientation Groundspeed Altitude Reporting Facility
EDT Latitude Longitude Course Direction KTS MPH feet Rate Location/Type
Tue 06:48:40 PM 26.0747 -80.1436 62° Northeast 154 177 900  Level Miami Center
Tue 06:49:49 PM 26.1033 -80.0842 324° Northwest 217 250 4,200 2,977 Climbing Miami Center
Tue 06:50:49 PM 26.1567 -80.1272 328° Northwest 277 319 7,300 3,300 Climbing Miami Center
Tue 06:51:49 PM 26.2286 -80.1781 287° West 293 337 10,800 2,000 Climbing Miami Center
Tue 06:52:49 PM 26.2536 -80.2714 278° West 305 351 11,300 1,150 Climbing Miami Center
Tue 06:53:49 PM 26.2675 -80.3853 278° West 319 367 13,100 2,600 Climbing Miami Center
Tue 06:54:49 PM 26.2817 -80.4944 290° West 350 403 16,500 3,050 Climbing Miami Center
Tue 06:55:49 PM 26.3144 -80.5975 308° West 355 409 19,200 2,750 Climbing Miami Center
Tue 06:56:49 PM 26.3769 -80.6853 305° West 355 409 22,000 1,400 Climbing Miami Center
Tue 06:57:49 PM 26.4350 -80.7775 305° West 363 418 22,000  Level Miami Center
Tue 06:58:49 PM 26.4931 -80.8700 305° West 363 418 22,000  Level Miami Center
Tue 06:59:49 PM 26.5492 -80.9600 307° West 363 418 22,000  Level Miami Center
Tue 07:00:49 PM 26.6053 -81.0433 307° West 363 418 22,000  Level Miami Center
Tue 07:01:49 PM 26.6653 -81.1339 305° West 363 418 22,000  Level Miami Center
Tue 07:02:49 PM 26.7289 -81.2361 306° West 363 418 22,000  Level Miami Center
Tue 07:03:49 PM 26.7889 -81.3292 308° West 369 425 22,000  Level Miami Center
Tue 07:04:49 PM 26.8508 -81.4175 313° West 363 418 22,000  Level Miami Center
Tue 07:05:49 PM 26.9131 -81.4922 314° West 363 418 22,000  Level Miami Center
Tue 07:06:49 PM 26.9836 -81.5742 314° West 363 418 22,000 -50 Level Miami Center
Tue 07:07:49 PM 27.0619 -81.6658 313° West 363 418 21,900 -850 Descending Miami Center
Tue 07:08:49 PM 27.1303 -81.7481 314° West 363 418 20,300 -1,750 Descending Miami Center
Tue 07:09:49 PM 27.1964 -81.8256 311° West 350 403 18,400 -1,850 Descending Miami Center
Tue 07:10:49 PM 27.2603 -81.9078 314° West 358 412 16,600 -1,850 Descending Miami Center
Tue 07:11:49 PM 27.3264 -81.9853 314° West 344 396 14,700 -1,900 Descending Miami Center
Tue 07:12:49 PM 27.3906 -82.0608 314° West 344 396 12,800 -1,850 Descending Miami Center
Tue 07:13:49 PM 27.4567 -82.1386 313° West 339 390 11,000 -900 Descending Miami Center
Tue 07:14:49 PM 27.5206 -82.2164 314° West 339 390 11,000 -500 Level Miami Center
Tue 07:15:49 PM 27.5825 -82.2894 313° West 320 368 10,000 -1,200 Descending Miami Center
Tue 07:16:49 PM 27.6403 -82.3603 320° Northwest 325 374 8,600 -1,400 Descending Miami Center
Tue 07:17:49 PM 27.7047 -82.4219 North 315 362 7,200 -1,400 Descending Miami Center
Tue 07:18:49 PM 27.7839 -82.4211 North 278 320 5,800 -1,100 Descending Miami Center
Tue 07:19:49 PM 27.8594 -82.4153 359° North 273 314 5,000 -387 Descending Miami Center
Tue 07:20:53 PM 27.9333 -82.4167 360° North 240 276 5,000 -48 Level Tampa TRACON
Tue 07:21:53 PM 28.0000 -82.4167 360° North 232 267 4,900 -550 Descending Tampa TRACON
Tue 07:22:53 PM 28.0667 -82.4167 360° North 214 246 3,900 -950 Descending Tampa TRACON
Tue 07:23:53 PM 28.1167 -82.4167 307° West 205 236 3,000 -400 Descending Tampa TRACON
Tue 07:24:53 PM 28.1500 -82.4667 240° Southwest 226 260 3,100 -364 Climbing Tampa TRACON
Tue 07:26:05 PM 28.1167 -82.5333 180° South 210 242 2,200 -773 Descending Tampa TRACON
Tue 07:27:05 PM 28.0667 -82.5333 180° South 184 212 1,400 -800 Descending Tampa TRACON
Tue 07:28:05 PM 28.0167 -82.5333 180° South 148 170 600 -800 Descending Tampa TRACON

Login

Don't have an account? Register now (free) for customized features, flight alerts, and more!